• Join FlightAware (Why Join?)
  • Login
  • US Flag 
Gobble Gobble! 
11:10AM EST


 

Airport Tracker/Info


-or-


 

Live Flight TrackerFlight Track Log ✈ JZA8279 ✈ 08-May-2013 ✈ CYPR - CYVR

Flight Track Log - Related Links

Times and Time Zones

All times are in EDT time to prevent confusion due to time zone crossing. See the JZA8279 flight status page for this flight to view local times or setup timezone preferences in your user account.

Time Position Orientation Groundspeed Altitude Reporting Facility
EDT Latitude Longitude Course Direction KTS MPH feet Rate Location/Type
01:44PM 54.2667 -130.4667 150° Southeast 110 127 600  Level Vancouver Center
01:45PM 54.2333 -130.4333 150° Southeast 140 161 2,200 1,500 Climbing Vancouver Center
01:46PM 54.1833 -130.3833 150° Southeast 150 173 3,700 1,440 Climbing Vancouver Center
01:47PM 54.1667 -130.3333 120° Southeast 150 173 5,100 1,260 Climbing Vancouver Center
01:48PM 54.1333 -130.3000 150° Southeast 160 184 6,300 1,140 Climbing Vancouver Center
01:49PM 54.1000 -130.2333 130° Southeast 190 219 7,400 1,080 Climbing Vancouver Center
01:50PM 54.0667 -130.1667 130° Southeast 190 219 8,500 1,140 Climbing Vancouver Center
01:51PM 54.0167 -130.0833 136° Southeast 200 230 9,700 1,140 Climbing Vancouver Center
01:52PM 53.9833 -130.0167 130° Southeast 200 230 10,800 1,080 Climbing Vancouver Center
01:53PM 53.9500 -129.9500 130° Southeast 210 242 11,900 1,140 Climbing Vancouver Center
01:54PM 53.9000 -129.8833 142° Southeast 210 242 13,100 1,140 Climbing Vancouver Center
01:55PM 53.8500 -129.8000 135° Southeast 220 253 14,200 1,020 Climbing Vancouver Center
01:56PM 53.8167 -129.7333 130° Southeast 220 253 15,200 900 Climbing Vancouver Center
01:57PM 53.7667 -129.6500 135° Southeast 230 265 16,000 900 Climbing Vancouver Center
01:58PM 53.7333 -129.5833 130° Southeast 230 265 17,000 840 Climbing Vancouver Center
01:59PM 53.6833 -129.5000 135° Southeast 230 265 17,700 660 Climbing Vancouver Center
02:00PM 53.6333 -129.4333 142° Southeast 240 276 18,400 780 Climbing Vancouver Center
02:01PM 53.5833 -129.3333 130° Southeast 240 276 19,300 780 Climbing Vancouver Center
02:02PM 53.5333 -129.2500 135° Southeast 240 276 20,000 660 Climbing Vancouver Center
02:03PM 53.5000 -129.1833 130° Southeast 240 276 20,700 660 Climbing Vancouver Center
02:04PM 53.4500 -129.1000 135° Southeast 240 276 21,400 660 Climbing Vancouver Center
02:05PM 53.4000 -129.0333 142° Southeast 240 276 22,100 600 Climbing Vancouver Center
02:06PM 53.3500 -128.9500 135° Southeast 240 276 22,600 420 Climbing Vancouver Center
02:07PM 53.3000 -128.8833 141° Southeast 240 276 23,000 180 Climbing Vancouver Center
02:08PM 53.2500 -128.8000 135° Southeast 250 288 23,000  Level Vancouver Center
02:09PM 53.2000 -128.7000 130° Southeast 270 311 23,000  Level Vancouver Center
02:10PM 53.1333 -128.6167 143° Southeast 270 311 23,000  Level Vancouver Center
02:11PM 53.0833 -128.5167 130° Southeast 280 322 23,000  Level Vancouver Center
02:12PM 53.0167 -128.4333 143° Southeast 280 322 23,000  Level Vancouver Center
02:13PM 52.9833 -128.3500 124° Southeast 280 322 23,000  Level Vancouver Center
02:14PM 52.9167 -128.2500 138° Southeast 290 334 23,000  Level Vancouver Center
02:15PM 52.8500 -128.1667 143° Southeast 280 322 23,000  Level Vancouver Center
02:16PM 52.8000 -128.0833 135° Southeast 280 322 23,000  Level Vancouver Center
02:17PM 52.7333 -127.9667 133° Southeast 280 322 23,000  Level Vancouver Center
02:18PM 52.6833 -127.9000 141° Southeast 280 322 23,000  Level Vancouver Center
02:19PM 52.6333 -127.7833 125° Southeast 280 322 23,000  Level Vancouver Center
02:20PM 52.5833 -127.7000 135° Southeast 280 322 23,000  Level Vancouver Center
02:21PM 52.5167 -127.6333 149° Southeast 280 322 23,000  Level Vancouver Center
02:22PM 52.4667 -127.5333 129° Southeast 280 322 23,000  Level Vancouver Center
02:23PM 52.4000 -127.4333 138° Southeast 280 322 23,000  Level Vancouver Center
02:24PM 52.3333 -127.3500 143° Southeast 280 322 23,000  Level Vancouver Center
02:25PM 52.3000 -127.2667 123° Southeast 280 322 23,000  Level Vancouver Center
02:26PM 52.2333 -127.1833 143° Southeast 280 322 23,000  Level Vancouver Center
02:27PM 52.1833 -127.1000 134° Southeast 280 322 23,000  Level Vancouver Center
02:28PM 52.1167 -127.0000 137° Southeast 280 322 23,000  Level Vancouver Center
02:29PM 52.0667 -126.9167 134° Southeast 280 322 23,000  Level Vancouver Center
02:30PM 52.0000 -126.8333 142° Southeast 280 322 23,000  Level Vancouver Center
02:31PM 51.9500 -126.7500 134° Southeast 280 322 23,000  Level Vancouver Center
02:32PM 51.9000 -126.6667 134° Southeast 280 322 23,000  Level Vancouver Center
02:33PM 51.8500 -126.5833 134° Southeast 280 322 23,000  Level Vancouver Center
02:34PM 51.7833 -126.5000 142° Southeast 280 322 23,000  Level Vancouver Center
02:35PM 51.7167 -126.4167 142° Southeast 280 322 23,000  Level Vancouver Center
02:36PM 51.6667 -126.3333 134° Southeast 280 322 23,000  Level Vancouver Center
02:37PM 51.6000 -126.2500 142° Southeast 280 322 23,000  Level Vancouver Center
02:38PM 51.5500 -126.1667 134° Southeast 280 322 23,000  Level Vancouver Center
02:39PM 51.5000 -126.0833 134° Southeast 280 322 23,000  Level Vancouver Center
02:40PM 51.4333 -126.0000 142° Southeast 280 322 23,000  Level Vancouver Center
02:41PM 51.3833 -125.9167 134° Southeast 280 322 23,000  Level Vancouver Center
02:42PM 51.3167 -125.8333 142° Southeast 280 322 23,000  Level Vancouver Center
02:43PM 51.2667 -125.7500 134° Southeast 280 322 23,000  Level Vancouver Center
02:44PM 51.2167 -125.6667 134° Southeast 280 322 23,000  Level Vancouver Center
02:45PM 51.1500 -125.5833 142° Southeast 280 322 23,000  Level Vancouver Center
02:46PM 51.1000 -125.5000 134° Southeast 270 311 23,000  Level Vancouver Center
02:47PM 51.0333 -125.4167 142° Southeast 280 322 23,000  Level Vancouver Center
02:48PM 50.9833 -125.3333 134° Southeast 270 311 23,000  Level Vancouver Center
02:49PM 50.9167 -125.2500 142° Southeast 270 311 23,000  Level Vancouver Center
02:50PM 50.8667 -125.1667 134° Southeast 280 322 23,000  Level Vancouver Center
02:51PM 50.8000 -125.1000 148° Southeast 280 322 23,000  Level Vancouver Center
02:52PM 50.7500 -125.0167 133° Southeast 280 322 23,000  Level Vancouver Center
02:53PM 50.6833 -124.9333 142° Southeast 270 311 23,000  Level Vancouver Center
02:54PM 50.6333 -124.8500 133° Southeast 280 322 23,000  Level Vancouver Center
02:55PM 50.5667 -124.7667 142° Southeast 280 322 23,000  Level Vancouver Center
02:56PM 50.5167 -124.6833 133° Southeast 280 322 23,000  Level Vancouver Center
02:57PM 50.4500 -124.6333 154° Southeast 280 322 23,000  Level Vancouver Center
02:58PM 50.4000 -124.5500 133° Southeast 280 322 23,000  Level Vancouver Center
02:59PM 50.3333 -124.4833 147° Southeast 280 322 23,000 -240 Level Vancouver Center
03:00PM 50.2833 -124.4000 133° Southeast 280 322 22,600 -900 Descending Vancouver Center
03:01PM 50.2167 -124.3000 136° Southeast 300 345 21,300 -1,260 Descending Vancouver Center
03:02PM 50.1500 -124.2167 141° Southeast 320 368 20,100 -1,260 Descending Vancouver Center
03:03PM 50.0833 -124.1333 141° Southeast 320 368 18,800 -1,260 Descending Vancouver Center
03:04PM 50.0000 -124.0333 142° Southeast 320 368 17,600 -1,200 Descending Vancouver Center
03:05PM 49.9500 -123.9500 133° Southeast 310 357 16,400 -1,200 Descending Vancouver Center
03:06PM 49.8833 -123.8833 147° Southeast 300 345 15,200 -1,200 Descending Vancouver Center
03:07PM 49.8167 -123.8000 141° Southeast 300 345 14,000 -1,200 Descending Vancouver Center
03:08PM 49.7667 -123.7167 133° Southeast 290 334 12,900 -1,200 Descending Vancouver Center
03:09PM 49.7000 -123.6167 136° Southeast 290 334 11,600 -1,440 Descending Vancouver Center
03:10PM 49.6167 -123.6000 173° South 280 322 10,100 -1,200 Descending Vancouver Center
03:11PM 49.5500 -123.6000 180° South 270 311 9,200 -1,140 Descending Vancouver Center
03:12PM 49.4833 -123.5667 162° South 260 299 7,900 -1,260 Descending Vancouver Center
03:13PM 49.4167 -123.5667 180° South 250 288 6,700 -1,320 Descending Vancouver Center
03:14PM 49.3333 -123.5667 180° South 240 276 5,300 -1,260 Descending Vancouver Center
03:15PM 49.2833 -123.5667 180° South 220 253 4,200 -1,140 Descending Vancouver Center
03:16PM 49.2333 -123.5167 147° Southeast 210 242 3,100 -840 Descending Vancouver Center
03:17PM 49.2167 -123.4333 107° East 190 219 2,600 -480 Descending Vancouver Center
03:18PM 49.2000 -123.3667 111° Southeast 190 219 2,200 -600 Descending Vancouver Center
03:19PM 49.2000 -123.2833 90° East 160 184 1,400 -840 Descending Vancouver Center